Airfield :
LOGIN :

Register | Disclaimer

   EN    FR    IT 

 










Legend :    VFR   Marginal VFR   IFR   Intensive IFR   Very Intensive IFR
Visi :
Ceiling :
>= 8 km
>= 3000ft
5 to 8 km
1000 to 3000 ft
1500m to 5 km
500 to 1000 ft
800 to 1500m
200 to 500 ft
< 800m
< 200 ft
Symbols :   Thunderstorms  Fog  Heavy snow  Heavy precipitations  Wind > 20 kt
SIGMETs :     Misc.  Thunderstorms  Icing  Turbulence  Mountain Waves  Volcanic Ashes






- Airport Elevation : 22 ft
- IATA code : TUN


DTTA - Tunis Carthage

CURRENT METAR :
  • 031330Z 10009KT 050V160 9999 SCT026 37/19 Q1013

EXPIRED METARs :
  • 031300Z 06007KT 030V120 9999 SCT026 37/21 Q1013
  • 031200Z 07006KT 030V140 9999 SCT026 36/19 Q1014
  • 031130Z 07005KT 350V150 9999 SCT026 34/21 Q1014
  • 031100Z 08005KT 040V140 9999 SCT026 33/21 Q1014

TAF TAF DTTA
Valid from the 03 at 12:00 until the 04 at 12:00 UTC


031100Z 0312/0412 06005KT CAVOK
BECMG 0316/0318 12015KT
PROB30
TEMPO 0318/0322 4000 TSRA FEW026CB



MET'MAP, your aeronautical weather chart ! - Copyright ORBIFLY December 2007 - Disclaimer

ORBIFLY MET'MAP TEAM :

Programming & Development : Alexandra Zaïnal
Concept & original design : Baudouin d'Aumeries
Assistance for programming : Marc-Olivier Méhu
Technical & hardware support : Manuel Goepfert

Contact : metmap@orbifly.com




SOURCES & CREDITS :

   NOAA